Time;durP1;ratioP1;P1;durP2;ratioP2;P2;SDS_P1;SDS_P2;PMS_P1;PMS_P2;Temp;Humidity;BMP_temperature;BMP_pressure;BME280_temperature;BME280_humidity;BME280_pressure;Samples;Min_cycle;Max_cycle;Signal;HPM_P1;HPM_P2
2023/03/10 00:02:22;;;;;;;129.18;63.78;;;3.60;99.90;;;;;;5053788;28;20029;-79
2023/03/10 00:04:52;;;;;;;107.95;54.03;;;3.50;99.90;;;;;;5053672;28;20424;-80
2023/03/10 00:07:18;;;;;;;92.10;45.55;;;3.60;99.90;;;;;;5053603;28;20036;-79
2023/03/10 00:09:45;;;;;;;83.03;40.17;;;3.50;99.90;;;;;;5053567;28;20080;-79
2023/03/10 00:12:11;;;;;;;83.70;46.20;;;3.50;99.90;;;;;;5053778;28;20488;-79
2023/03/10 00:14:36;;;;;;;96.38;49.42;;;3.50;99.90;;;;;;5054849;28;20024;-78
2023/03/10 00:17:02;;;;;;;100.90;49.75;;;3.60;99.90;;;;;;5054681;28;20021;-78
2023/03/10 00:19:28;;;;;;;89.57;47.67;;;3.60;99.90;;;;;;5053580;28;20017;-79
2023/03/10 00:21:54;;;;;;;89.75;45.53;;;3.60;99.90;;;;;;5053482;28;20024;-79
2023/03/10 00:24:19;;;;;;;77.95;40.70;;;3.60;99.90;;;;;;5053291;28;20021;-77
2023/03/10 00:26:45;;;;;;;72.15;35.88;;;3.60;99.90;;;;;;5054694;28;20033;-77
2023/03/10 00:29:11;;;;;;;67.05;35.88;;;3.60;99.90;;;;;;5054590;28;20382;-77
2023/03/10 00:31:37;;;;;;;64.30;32.85;;;3.60;99.90;;;;;;5054510;28;20028;-81
2023/03/10 00:34:04;;;;;;;58.03;32.22;;;3.60;99.90;;;;;;5053025;28;20445;-80
2023/03/10 00:36:31;;;;;;;59.25;30.83;;;3.60;99.90;;;;;;5053153;28;20013;-79
2023/03/10 00:38:59;;;;;;;62.22;32.03;;;3.60;99.90;;;;;;5053892;28;20043;-82
2023/03/10 00:41:31;;;;;;;63.58;33.17;;;3.60;99.90;;;;;;5054315;28;20032;-81
2023/03/10 00:43:57;;;;;;;67.75;32.22;;;3.70;99.90;;;;;;5054072;28;20025;-78
2023/03/10 00:46:24;;;;;;;68.40;35.10;;;3.70;99.90;;;;;;5053869;28;20459;-81
2023/03/10 00:48:50;;;;;;;63.33;33.08;;;3.70;99.90;;;;;;5052979;28;20059;-81
2023/03/10 00:51:16;;;;;;;75.13;35.75;;;3.80;99.90;;;;;;5054363;28;20052;-81
2023/03/10 00:53:42;;;;;;;69.05;36.85;;;3.80;99.90;;;;;;5052691;28;20021;-81
2023/03/10 00:56:16;;;;;;;72.43;38.75;;;3.80;99.90;;;;;;5053740;28;20474;-78
2023/03/10 00:58:43;;;;;;;72.40;35.92;;;3.90;99.90;;;;;;5052571;28;20067;-82
2023/03/10 01:01:16;;;;;;;61.95;33.45;;;3.90;99.90;;;;;;5052512;28;20029;-81
2023/03/10 01:03:42;;;;;;;68.88;35.13;;;3.90;99.90;;;;;;5052836;28;20024;-79
2023/03/10 01:06:09;;;;;;;73.07;38.40;;;3.90;99.90;;;;;;5053761;28;20032;-78
2023/03/10 01:08:34;;;;;;;72.57;35.83;;;3.90;99.90;;;;;;5052553;28;20029;-80
2023/03/10 01:11:00;;;;;;;77.38;42.55;;;4.00;99.90;;;;;;5053553;28;20083;-80
2023/03/10 01:13:25;;;;;;;71.80;38.10;;;4.00;99.90;;;;;;5052550;28;20025;-80
2023/03/10 01:15:51;;;;;;;70.82;38.00;;;4.00;99.90;;;;;;5053779;28;20108;-80
2023/03/10 01:18:18;;;;;;;83.00;48.88;;;4.10;99.90;;;;;;5052696;28;20064;-78
2023/03/10 01:20:44;;;;;;;74.82;37.25;;;4.10;99.90;;;;;;5052184;28;20074;-79
2023/03/10 01:23:17;;;;;;;73.20;41.88;;;4.10;99.90;;;;;;5052603;28;20033;-78
2023/03/10 01:25:43;;;;;;;79.60;39.75;;;4.10;99.90;;;;;;5053759;28;20115;-79
2023/03/10 01:28:09;;;;;;;84.20;46.20;;;4.00;99.90;;;;;;5052153;28;20139;-80
2023/03/10 01:30:35;;;;;;;87.30;46.88;;;4.00;99.90;;;;;;5053545;28;20031;-78
2023/03/10 01:33:01;;;;;;;74.65;39.20;;;4.00;99.90;;;;;;5051958;28;20147;-79
2023/03/10 01:35:28;;;;;;;78.05;38.95;;;4.00;99.90;;;;;;5053208;28;20024;-81
2023/03/10 01:37:54;;;;;;;63.63;34.17;;;4.00;99.90;;;;;;5052349;28;20061;-81
2023/03/10 01:40:20;;;;;;;66.22;34.63;;;4.00;99.90;;;;;;5051898;28;20190;-79
2023/03/10 01:42:45;;;;;;;62.30;32.67;;;4.10;99.90;;;;;;5051972;28;20028;-78
2023/03/10 01:45:14;;;;;;;64.05;30.92;;;4.10;99.90;;;;;;5053190;28;20459;-78
2023/03/10 01:47:41;;;;;;;61.42;32.38;;;4.10;99.90;;;;;;5052794;28;20072;-79
2023/03/10 01:50:12;;;;;;;68.07;34.85;;;4.10;99.90;;;;;;5052317;28;20356;-78
2023/03/10 01:52:40;;;;;;;73.45;37.63;;;4.10;99.90;;;;;;5053125;28;20029;-79
2023/03/10 01:55:14;;;;;;;62.88;36.45;;;4.10;99.90;;;;;;5052907;28;20425;-81
2023/03/10 01:57:44;;;;;;;61.53;35.78;;;4.10;99.90;;;;;;5052958;28;20059;-80
2023/03/10 02:00:11;;;;;;;64.00;35.03;;;4.10;99.90;;;;;;5053073;28;20118;-81
2023/03/10 02:02:53;;;;;;;60.88;32.90;;;4.10;99.90;;;;;;5053000;28;20028;-77
2023/03/10 02:05:20;;;;;;;57.80;32.77;;;4.10;99.90;;;;;;5053093;28;20088;-78
2023/03/10 02:07:46;;;;;;;59.88;30.75;;;4.00;99.90;;;;;;5053265;28;20040;-79
2023/03/10 02:10:13;;;;;;;54.97;31.08;;;4.00;99.90;;;;;;5051931;28;20027;-78
2023/03/10 02:12:38;;;;;;;70.95;39.15;;;3.90;99.90;;;;;;5051643;28;20025;-79
2023/03/10 02:15:05;;;;;;;63.60;35.92;;;3.90;99.90;;;;;;5051771;28;20021;-77
2023/03/10 02:17:30;;;;;;;60.78;33.97;;;3.90;99.90;;;;;;5052885;28;20025;-79
2023/03/10 02:20:08;;;;;;;59.33;32.30;;;3.90;99.90;;;;;;5051040;28;20394;-77
2023/03/10 02:22:36;;;;;;;51.60;30.95;;;3.80;99.90;;;;;;5052837;28;20033;-79
2023/03/10 02:25:38;;;;;;;65.13;32.28;;;3.80;99.90;;;;;;5052896;28;20413;-77
2023/03/10 02:28:04;;;;;;;64.05;33.70;;;3.80;99.90;;;;;;5051475;28;20037;-77
2023/03/10 02:30:38;;;;;;;55.50;29.77;;;3.70;99.90;;;;;;5052731;28;20360;-77
2023/03/10 02:33:08;;;;;;;68.10;31.05;;;3.70;99.90;;;;;;5052741;28;20479;-80
2023/03/10 02:35:34;;;;;;;59.05;31.85;;;3.70;99.90;;;;;;5051534;28;20456;-77
2023/03/10 02:37:59;;;;;;;53.00;27.25;;;3.70;99.90;;;;;;5051795;28;20052;-77
2023/03/10 02:40:46;;;;;;;46.58;25.77;;;3.60;99.90;;;;;;5051343;28;20033;-77
2023/03/10 02:43:30;;;;;;;47.33;26.73;;;3.50;99.90;;;;;;5051379;28;20552;-77
2023/03/10 02:45:59;;;;;;;44.42;26.45;;;3.50;99.90;;;;;;5051237;28;20025;-77
2023/03/10 02:48:32;;;;;;;46.15;25.55;;;3.40;99.90;;;;;;5052418;28;20131;-79
2023/03/10 02:51:00;;;;;;;47.38;28.33;;;3.40;99.90;;;;;;5051536;28;20017;-77
2023/03/10 02:53:28;;;;;;;44.92;25.08;;;3.30;99.90;;;;;;5051249;28;20021;-78
2023/03/10 02:55:55;;;;;;;43.22;23.83;;;3.30;99.90;;;;;;5052523;28;20025;-78
2023/03/10 02:58:24;;;;;;;41.90;22.75;;;3.30;99.90;;;;;;5051505;28;20032;-82
2023/03/10 03:00:50;;;;;;;43.75;23.00;;;3.20;99.90;;;;;;5051025;28;20071;-80
2023/03/10 03:03:18;;;;;;;41.83;22.83;;;3.20;99.90;;;;;;5054952;28;20417;-81
2023/03/10 03:05:44;;;;;;;44.63;23.42;;;3.30;99.90;;;;;;5054911;28;20024;-80
2023/03/10 03:08:09;;;;;;;39.40;23.02;;;3.30;99.90;;;;;;5055037;28;20036;-80
2023/03/10 03:10:37;;;;;;;42.63;21.75;;;3.30;99.90;;;;;;5056256;28;20017;-79
2023/03/10 03:13:04;;;;;;;39.28;22.13;;;3.30;99.90;;;;;;5056292;28;20032;-79
2023/03/10 03:15:30;;;;;;;42.38;23.10;;;3.30;99.90;;;;;;5055998;28;20379;-79
2023/03/10 03:17:57;;;;;;;44.75;25.08;;;3.30;99.90;;;;;;5055577;28;20364;-81
2023/03/10 03:20:24;;;;;;;53.63;29.52;;;3.20;99.90;;;;;;5055511;28;20374;-78
2023/03/10 03:22:50;;;;;;;51.13;28.67;;;3.20;99.90;;;;;;5055807;28;20021;-80
2023/03/10 03:25:18;;;;;;;47.60;26.40;;;3.20;99.90;;;;;;5055520;28;20021;-81
2023/03/10 03:27:45;;;;;;;40.42;24.70;;;3.10;99.90;;;;;;5055350;28;20037;-81
2023/03/10 03:30:15;;;;;;;36.65;22.85;;;3.10;99.90;;;;;;5055054;28;20029;-82
2023/03/10 03:32:40;;;;;;;39.88;22.98;;;3.10;99.90;;;;;;5055307;28;20074;-82
2023/03/10 03:35:27;;;;;;;39.38;23.33;;;3.00;99.90;;;;;;5055143;28;20025;-84
2023/03/10 03:37:53;;;;;;;44.53;23.33;;;3.00;99.90;;;;;;5054371;28;20028;-83
2023/03/10 03:40:20;;;;;;;43.25;24.33;;;2.90;99.90;;;;;;5054944;28;20467;-83
2023/03/10 03:42:49;;;;;;;38.80;22.27;;;2.90;99.90;;;;;;5053904;28;20532;-84
2023/03/10 03:45:16;;;;;;;39.08;22.77;;;2.90;99.90;;;;;;5054803;28;20483;-82
2023/03/10 03:47:42;;;;;;;41.10;22.85;;;2.90;99.90;;;;;;5054482;28;20406;-83
2023/03/10 03:50:10;;;;;;;44.10;24.65;;;2.80;99.90;;;;;;5055033;28;20100;-82
2023/03/10 03:52:35;;;;;;;42.03;24.45;;;2.80;99.90;;;;;;5054883;28;20025;-82
2023/03/10 03:55:01;;;;;;;41.28;21.90;;;2.80;99.90;;;;;;5055073;28;20032;-84
2023/03/10 03:57:27;;;;;;;38.38;22.25;;;2.70;99.90;;;;;;5054979;28;20029;-82
2023/03/10 03:59:54;;;;;;;40.78;21.95;;;2.70;99.90;;;;;;5055115;28;20102;-82
2023/03/10 04:02:20;;;;;;;41.05;22.05;;;2.70;99.90;;;;;;5054920;28;20029;-83
2023/03/10 04:04:45;;;;;;;47.17;23.50;;;2.70;99.90;;;;;;5054957;28;20017;-81
2023/03/10 04:07:12;;;;;;;40.42;21.67;;;2.70;99.90;;;;;;5054594;28;20079;-82
2023/03/10 04:09:38;;;;;;;44.30;22.90;;;2.70;99.90;;;;;;5053815;28;20356;-80
2023/03/10 04:12:05;;;;;;;40.97;20.95;;;2.60;99.90;;;;;;5054466;28;20104;-81
2023/03/10 04:14:31;;;;;;;35.60;21.05;;;2.60;99.90;;;;;;5052437;28;20116;-82
2023/03/10 04:16:56;;;;;;;32.40;17.63;;;2.50;99.90;;;;;;5053254;28;20052;-81
2023/03/10 04:19:22;;;;;;;30.02;17.08;;;2.40;99.90;;;;;;5054104;28;20021;-81
2023/03/10 04:21:48;;;;;;;32.55;18.00;;;2.40;99.90;;;;;;5053198;28;20414;-81
2023/03/10 04:24:14;;;;;;;38.67;23.27;;;2.40;99.90;;;;;;5053165;28;20025;-80
2023/03/10 04:26:40;;;;;;;34.65;20.33;;;2.20;99.90;;;;;;5054307;28;20017;-81
2023/03/10 04:29:05;;;;;;;27.65;16.60;;;2.20;99.90;;;;;;5054549;28;20025;-81
2023/03/10 04:31:31;;;;;;;32.30;18.55;;;2.30;99.90;;;;;;5054539;28;20486;-80
2023/03/10 04:33:57;;;;;;;32.03;18.13;;;2.30;99.90;;;;;;5054486;28;20021;-80
2023/03/10 04:36:22;;;;;;;37.30;18.27;;;2.30;99.90;;;;;;5053077;28;20025;-80
2023/03/10 04:38:48;;;;;;;34.20;18.23;;;2.30;99.90;;;;;;5053314;28;20026;-79
2023/03/10 04:41:14;;;;;;;29.00;16.63;;;2.30;99.90;;;;;;5053225;28;20025;-79
2023/03/10 04:43:40;;;;;;;26.73;17.00;;;2.20;99.90;;;;;;5052975;28;20021;-80
2023/03/10 04:46:06;;;;;;;25.45;14.70;;;2.20;99.90;;;;;;5054671;28;20048;-79
2023/03/10 04:48:32;;;;;;;28.38;16.42;;;2.20;99.90;;;;;;5052408;28;20052;-78
2023/03/10 04:51:04;;;;;;;28.38;16.35;;;2.20;99.90;;;;;;5054269;28;20443;-78
2023/03/10 04:53:33;;;;;;;24.25;15.40;;;2.20;99.90;;;;;;5053146;28;20040;-81
2023/03/10 04:56:01;;;;;;;25.88;13.85;;;2.10;99.90;;;;;;5054006;28;20021;-78
2023/03/10 04:58:26;;;;;;;23.48;15.00;;;2.10;99.90;;;;;;5054078;28;20028;-81
2023/03/10 05:00:52;;;;;;;26.67;14.43;;;2.00;99.90;;;;;;5052653;28;20048;-81
2023/03/10 05:03:18;;;;;;;27.02;14.75;;;2.00;99.90;;;;;;5052637;28;20062;-78
2023/03/10 05:05:43;;;;;;;23.95;15.32;;;1.90;99.90;;;;;;5052724;28;20425;-78
2023/03/10 05:08:09;;;;;;;23.65;13.77;;;1.90;99.90;;;;;;5053717;28;20041;-83
2023/03/10 05:10:37;;;;;;;25.05;14.48;;;1.90;99.90;;;;;;5052388;28;20024;-78
2023/03/10 05:13:03;;;;;;;27.75;15.98;;;1.90;99.90;;;;;;5053646;28;20028;-78
2023/03/10 05:15:29;;;;;;;38.80;23.10;;;1.80;99.90;;;;;;5053934;28;20028;-78
2023/03/10 05:17:54;;;;;;;36.17;20.40;;;1.70;99.90;;;;;;5054027;28;20017;-78
2023/03/10 05:20:20;;;;;;;25.92;16.52;;;1.70;99.90;;;;;;5052283;28;20020;-80
2023/03/10 05:22:45;;;;;;;30.10;17.00;;;1.60;99.90;;;;;;5073040;28;20478;-80
2023/03/10 05:25:11;;;;;;;21.77;12.70;;;1.60;99.90;;;;;;5073297;28;20025;-78
2023/03/10 05:27:37;;;;;;;27.70;13.02;;;1.60;99.90;;;;;;5073482;28;20032;-78
2023/03/10 05:30:05;;;;;;;20.20;12.50;;;1.60;99.90;;;;;;5072633;28;20017;-78
2023/03/10 05:32:34;;;;;;;21.80;12.35;;;1.60;99.90;;;;;;5072274;28;20082;-81
2023/03/10 05:35:00;;;;;;;19.52;11.35;;;1.50;99.90;;;;;;5072022;28;20012;-80
2023/03/10 05:37:25;;;;;;;18.83;12.43;;;1.50;99.90;;;;;;5072108;28;20020;-81
2023/03/10 05:39:51;;;;;;;22.88;13.10;;;1.60;99.90;;;;;;5073326;28;20170;-80
2023/03/10 05:42:17;;;;;;;22.00;11.93;;;1.60;99.90;;;;;;5073237;28;20028;-80
2023/03/10 05:44:42;;;;;;;22.70;12.00;;;1.60;99.90;;;;;;5073279;28;20493;-80
2023/03/10 05:47:09;;;;;;;26.67;14.45;;;1.70;99.90;;;;;;5073013;28;20076;-78
2023/03/10 05:49:35;;;;;;;18.33;11.90;;;1.70;99.90;;;;;;5071837;28;20478;-78
2023/03/10 05:52:00;;;;;;;22.90;12.93;;;1.80;99.90;;;;;;5073276;28;20113;-77
2023/03/10 05:54:26;;;;;;;28.83;13.60;;;1.80;99.90;;;;;;5071881;28;20017;-77
2023/03/10 05:56:51;;;;;;;30.98;16.73;;;1.90;99.90;;;;;;5071833;28;20040;-78
2023/03/10 05:59:17;;;;;;;31.02;17.00;;;1.90;99.90;;;;;;5072145;28;20107;-80
2023/03/10 06:01:43;;;;;;;26.80;14.70;;;2.00;99.90;;;;;;5071815;28;20020;-78
2023/03/10 06:04:08;;;;;;;27.13;15.15;;;2.10;99.90;;;;;;5071994;28;20378;-80
2023/03/10 06:06:34;;;;;;;27.65;15.30;;;2.20;99.90;;;;;;5072984;28;20072;-80
2023/03/10 06:09:00;;;;;;;26.50;13.82;;;2.30;99.90;;;;;;5072960;28;20017;-78
2023/03/10 06:11:26;;;;;;;23.17;13.93;;;2.40;99.90;;;;;;5071770;28;20033;-78
2023/03/10 06:13:51;;;;;;;33.92;15.63;;;2.60;99.90;;;;;;5073272;28;20032;-80
2023/03/10 06:16:17;;;;;;;34.45;18.30;;;2.70;99.90;;;;;;5072834;28;20056;-77
2023/03/10 06:18:43;;;;;;;29.77;16.23;;;3.00;99.90;;;;;;5062008;28;20032;-79
2023/03/10 06:21:11;;;;;;;30.48;17.88;;;3.10;99.90;;;;;;5051873;28;20032;-77
2023/03/10 06:23:37;;;;;;;30.50;16.85;;;3.30;99.90;;;;;;5053520;28;20020;-80
2023/03/10 06:26:05;;;;;;;44.17;22.55;;;3.50;99.90;;;;;;5052694;28;20022;-79
2023/03/10 06:28:35;;;;;;;62.10;31.75;;;3.70;99.90;;;;;;5052633;28;20461;-80
2023/03/10 06:31:23;;;;;;;44.65;23.20;;;3.90;99.90;;;;;;5052713;28;20040;-79
2023/03/10 06:33:49;;;;;;;33.10;18.60;;;4.00;99.90;;;;;;5051828;28;20025;-80
2023/03/10 06:36:16;;;;;;;31.92;18.52;;;4.30;99.90;;;;;;5066668;28;20025;-80
2023/03/10 06:38:41;;;;;;;50.45;28.73;;;4.50;99.90;;;;;;5061486;28;20104;-80
2023/03/10 06:41:07;;;;;;;58.67;33.00;;;4.60;99.90;;;;;;5063343;28;20108;-80
2023/03/10 06:43:34;;;;;;;45.53;32.08;;;4.90;99.90;;;;;;5055096;28;20075;-77
2023/03/10 06:46:03;;;;;;;25.48;14.57;;;5.20;99.90;;;;;;5054556;28;20036;-77
2023/03/10 06:48:29;;;;;;;19.30;13.82;;;5.40;99.90;;;;;;5054087;28;20469;-78
2023/03/10 06:50:54;;;;;;;21.23;10.43;;;5.50;99.90;;;;;;5055696;28;20025;-77
2023/03/10 06:53:21;;;;;;;18.65;9.10;;;5.60;99.90;;;;;;5053472;28;20021;-79
2023/03/10 06:56:09;;;;;;;14.38;8.25;;;5.70;99.90;;;;;;5053574;28;20017;-78
2023/03/10 06:58:36;;;;;;;16.40;10.38;;;5.80;99.90;;;;;;5054832;28;20425;-78
2023/03/10 07:01:02;;;;;;;14.05;7.43;;;5.90;99.90;;;;;;5055970;28;20387;-80
2023/03/10 07:03:28;;;;;;;14.45;7.82;;;6.00;99.90;;;;;;5054629;28;20103;-80
2023/03/10 07:05:57;;;;;;;8.85;5.75;;;6.10;99.90;;;;;;5055755;28;20028;-79
2023/03/10 07:08:22;;;;;;;10.00;5.28;;;6.10;99.90;;;;;;5054409;28;20137;-80
2023/03/10 07:10:48;;;;;;;6.38;4.25;;;6.20;99.90;;;;;;5054845;28;20497;-79
2023/03/10 07:13:16;;;;;;;6.32;3.65;;;6.30;99.90;;;;;;5054460;28;20057;-80
2023/03/10 07:15:42;;;;;;;11.90;4.63;;;6.40;99.90;;;;;;5054306;28;20036;-78
2023/03/10 07:18:08;;;;;;;11.20;5.30;;;6.50;99.90;;;;;;5055662;28;20021;-78
2023/03/10 07:20:34;;;;;;;16.77;7.68;;;6.60;99.90;;;;;;5055851;28;20471;-78
2023/03/10 07:22:59;;;;;;;11.85;6.57;;;6.80;99.90;;;;;;5055953;28;20100;-78
2023/03/10 07:25:26;;;;;;;9.82;5.15;;;7.00;99.90;;;;;;5055542;28;20025;-79
2023/03/10 07:27:52;;;;;;;8.10;4.47;;;7.20;99.90;;;;;;5054426;28;20078;-80
2023/03/10 07:30:17;;;;;;;5.88;2.75;;;7.50;99.90;;;;;;5055461;28;20025;-80
2023/03/10 07:32:43;;;;;;;3.92;3.22;;;7.80;99.90;;;;;;5054444;28;20495;-80
2023/03/10 07:35:09;;;;;;;8.02;4.43;;;8.10;99.90;;;;;;5074816;28;20027;-80
2023/03/10 07:37:39;;;;;;;7.68;5.35;;;8.40;99.90;;;;;;5074433;28;20031;-80
2023/03/10 07:40:06;;;;;;;4.57;2.50;;;8.60;99.90;;;;;;5074459;28;20112;-80
2023/03/10 07:42:32;;;;;;;9.90;2.80;;;8.90;99.90;;;;;;5074334;28;20477;-80
2023/03/10 07:44:58;;;;;;;9.07;2.95;;;9.10;99.90;;;;;;5073380;28;20024;-80
2023/03/10 07:47:23;;;;;;;5.97;2.83;;;9.40;99.90;;;;;;5074254;28;20089;-80
2023/03/10 07:49:49;;;;;;;3.85;2.03;;;9.50;99.90;;;;;;5074561;28;20021;-79
2023/03/10 07:52:17;;;;;;;3.67;2.58;;;9.60;93.60;;;;;;5075152;28;20036;-80
2023/03/10 07:54:43;;;;;;;4.68;2.40;;;9.70;91.50;;;;;;5075539;28;20359;-80
2023/03/10 07:57:09;;;;;;;4.30;2.38;;;9.90;93.90;;;;;;5090903;28;20527;-80
2023/03/10 07:59:36;;;;;;;3.70;2.47;;;10.00;91.80;;;;;;5074092;28;20020;-80
2023/03/10 08:02:02;;;;;;;4.10;2.35;;;10.10;89.00;;;;;;5074949;28;20031;-80
2023/03/10 08:04:27;;;;;;;3.42;2.13;;;10.30;86.80;;;;;;5075185;28;20032;-79
2023/03/10 08:06:53;;;;;;;4.47;2.50;;;10.40;84.00;;;;;;5074754;28;20028;-79
2023/03/10 08:09:18;;;;;;;2.15;1.90;;;10.50;82.50;;;;;;5073829;28;20487;-79
2023/03/10 08:11:44;;;;;;;2.63;2.08;;;10.60;81.00;;;;;;5074859;28;20114;-79
2023/03/10 08:14:10;;;;;;;6.32;3.08;;;10.80;79.50;;;;;;5073872;28;20021;-81
2023/03/10 08:16:36;;;;;;;4.75;2.30;;;11.00;79.10;;;;;;5073510;28;20532;-79
2023/03/10 08:19:02;;;;;;;5.47;2.47;;;11.10;77.50;;;;;;5074711;28;20024;-78
2023/03/10 08:21:28;;;;;;;4.88;2.50;;;11.30;77.70;;;;;;5074690;28;20098;-79
2023/03/10 08:23:54;;;;;;;7.97;2.60;;;11.50;76.70;;;;;;5074552;28;20024;-78
2023/03/10 08:26:20;;;;;;;6.80;2.92;;;11.70;76.60;;;;;;5073483;28;20066;-79
2023/03/10 08:28:46;;;;;;;4.65;2.03;;;11.90;75.10;;;;;;5073179;28;20033;-79
2023/03/10 08:31:15;;;;;;;3.83;2.30;;;12.00;74.40;;;;;;5074582;28;20024;-79
2023/03/10 08:33:41;;;;;;;5.68;2.15;;;12.00;72.90;;;;;;5073197;28;20028;-79
2023/03/10 08:36:14;;;;;;;5.55;2.63;;;11.90;71.60;;;;;;5061642;28;20017;-79
2023/03/10 08:38:41;;;;;;;3.97;2.08;;;11.90;71.70;;;;;;5053571;28;20025;-79
2023/03/10 08:41:11;;;;;;;4.57;2.10;;;12.10;71.80;;;;;;5052688;28;20028;-79
2023/03/10 08:43:38;;;;;;;3.22;1.92;;;12.10;71.10;;;;;;5052440;28;20076;-79
2023/03/10 08:46:05;;;;;;;3.03;1.77;;;12.20;71.60;;;;;;5052208;28;20092;-79
2023/03/10 08:48:30;;;;;;;3.17;1.73;;;12.20;69.80;;;;;;5051926;28;20242;-79
2023/03/10 08:50:57;;;;;;;3.13;1.50;;;12.20;68.70;;;;;;5052043;28;20025;-78
2023/03/10 08:53:23;;;;;;;2.15;1.45;;;12.20;67.30;;;;;;5053545;28;20486;-79
2023/03/10 08:55:49;;;;;;;2.67;1.30;;;12.30;67.90;;;;;;5051272;28;20051;-79
2023/03/10 08:58:15;;;;;;;3.42;1.73;;;12.30;68.10;;;;;;5051911;28;20390;-79
2023/03/10 09:00:41;;;;;;;4.05;1.85;;;12.40;67.10;;;;;;5053092;28;20057;-79
2023/03/10 09:03:09;;;;;;;9.07;1.80;;;12.50;66.90;;;;;;5050777;28;20108;-79
2023/03/10 09:05:36;;;;;;;4.13;1.70;;;12.50;67.20;;;;;;5052639;28;20025;-79
2023/03/10 09:08:02;;;;;;;4.15;2.10;;;12.60;66.00;;;;;;5053996;28;20062;-79
2023/03/10 09:10:28;;;;;;;3.67;1.40;;;12.60;66.30;;;;;;5052193;28;20025;-79
2023/03/10 09:12:54;;;;;;;4.20;1.60;;;12.60;65.20;;;;;;5052700;28;20017;-79
2023/03/10 09:15:20;;;;;;;5.80;1.80;;;12.50;65.50;;;;;;5052376;28;20159;-79
2023/03/10 09:17:46;;;;;;;3.08;1.77;;;12.50;65.90;;;;;;5052611;28;20379;-79
2023/03/10 09:20:14;;;;;;;4.60;1.92;;;12.50;66.60;;;;;;5054963;28;20031;-78
2023/03/10 09:22:40;;;;;;;3.17;1.70;;;12.50;66.80;;;;;;5052362;28;20013;-78
2023/03/10 09:25:06;;;;;;;3.40;1.50;;;12.50;66.40;;;;;;5053620;28;20029;-78
2023/03/10 09:27:32;;;;;;;1.83;1.55;;;12.50;66.20;;;;;;5052574;28;20063;-78
2023/03/10 09:29:58;;;;;;;3.47;1.77;;;12.60;65.20;;;;;;5053570;28;20024;-78
2023/03/10 09:32:23;;;;;;;3.85;1.70;;;12.60;66.30;;;;;;5053433;28;20025;-78
2023/03/10 09:34:49;;;;;;;5.00;1.80;;;12.60;66.40;;;;;;5052517;28;20443;-78
2023/03/10 09:37:15;;;;;;;4.93;2.63;;;12.70;66.30;;;;;;5051341;28;20021;-78
2023/03/10 09:39:40;;;;;;;5.03;2.35;;;12.80;65.50;;;;;;5052521;28;20083;-79
2023/03/10 09:42:12;;;;;;;4.00;2.20;;;12.90;65.50;;;;;;5051332;28;20021;-79
2023/03/10 09:44:46;;;;;;;5.40;1.98;;;13.00;66.50;;;;;;5050986;28;20025;-79
2023/03/10 09:47:41;;;;;;;2.35;1.48;;;13.20;66.40;;;;;;5052202;28;20053;-78
2023/03/10 09:50:27;;;;;;;3.83;1.95;;;13.30;64.10;;;;;;5051918;28;20029;-79
2023/03/10 09:53:17;;;;;;;2.50;1.35;;;13.40;64.00;;;;;;5050300;28;20500;-79
2023/03/10 09:55:44;;;;;;;3.25;1.70;;;13.30;63.40;;;;;;5051522;28;20104;-79
2023/03/10 09:58:18;;;;;;;3.22;1.70;;;13.30;64.00;;;;;;5052455;28;20025;-80
2023/03/10 10:00:45;;;;;;;2.72;1.48;;;13.40;63.50;;;;;;5051212;28;20389;-79
2023/03/10 10:03:21;;;;;;;3.65;1.70;;;13.40;63.50;;;;;;5051498;28;20021;-79
2023/03/10 10:05:49;;;;;;;3.72;1.55;;;13.60;63.80;;;;;;5050948;28;20079;-80
2023/03/10 10:08:31;;;;;;;2.75;2.05;;;13.70;65.00;;;;;;5051038;28;20115;-79
2023/03/10 10:10:59;;;;;;;2.38;1.52;;;13.90;63.40;;;;;;5051296;28;20389;-79
2023/03/10 10:13:28;;;;;;;5.40;1.67;;;14.00;63.50;;;;;;5055302;28;20027;-79
2023/03/10 10:16:02;;;;;;;5.18;2.20;;;14.20;63.30;;;;;;5056860;28;20021;-79
2023/03/10 10:18:38;;;;;;;2.78;1.50;;;14.60;62.10;;;;;;5056112;28;20025;-79
2023/03/10 10:21:10;;;;;;;1.80;1.35;;;14.90;61.40;;;;;;5055682;28;20017;-80
2023/03/10 10:23:50;;;;;;;1.20;1.10;;;15.30;61.80;;;;;;5056868;28;20045;-79
2023/03/10 10:26:18;;;;;;;2.42;1.58;;;15.30;59.00;;;;;;5055589;28;20021;-79
2023/03/10 10:28:58;;;;;;;4.53;1.60;;;15.20;59.10;;;;;;5055637;28;20074;-79
2023/03/10 10:31:28;;;;;;;3.30;1.70;;;15.20;61.00;;;;;;5054944;28;20063;-79
2023/03/10 10:33:57;;;;;;;1.63;1.52;;;15.30;61.00;;;;;;5055126;28;20441;-78
2023/03/10 10:36:32;;;;;;;2.00;1.48;;;15.30;60.50;;;;;;5056612;28;20112;-80
2023/03/10 10:38:59;;;;;;;2.00;1.48;;;15.30;58.70;;;;;;5054389;28;20053;-81
2023/03/10 10:41:33;;;;;;;2.30;1.60;;;15.50;59.00;;;;;;5054831;28;20045;-81
2023/03/10 10:44:13;;;;;;;2.85;1.85;;;15.40;58.30;;;;;;5056437;28;20028;-80
2023/03/10 10:46:50;;;;;;;3.20;1.73;;;15.50;58.40;;;;;;5054679;28;20052;-80
2023/03/10 10:49:26;;;;;;;3.53;2.13;;;15.50;59.20;;;;;;5055033;28;20590;-80
2023/03/10 10:52:04;;;;;;;4.90;1.77;;;15.40;58.40;;;;;;5055126;28;20033;-80
2023/03/10 10:54:36;;;;;;;3.75;1.80;;;15.40;57.90;;;;;;5056228;28;20439;-80
2023/03/10 10:57:02;;;;;;;3.90;1.80;;;15.50;58.30;;;;;;5056284;28;20021;-79
2023/03/10 10:59:34;;;;;;;6.80;1.80;;;15.40;58.00;;;;;;5056233;28;20025;-80
2023/03/10 11:02:02;;;;;;;3.13;1.53;;;15.40;56.90;;;;;;5071854;28;20025;-80
2023/03/10 11:04:41;;;;;;;4.95;2.40;;;15.40;56.30;;;;;;5056097;28;20055;-80
2023/03/10 11:07:22;;;;;;;4.95;1.63;;;15.40;56.20;;;;;;5055922;28;20032;-81
2023/03/10 11:09:48;;;;;;;1.83;1.40;;;15.40;56.70;;;;;;5070906;28;20075;-80
2023/03/10 11:12:42;;;;;;;2.25;1.60;;;15.40;55.70;;;;;;5054528;28;20372;-80
2023/03/10 11:15:29;;;;;;;3.13;1.45;;;15.50;55.50;;;;;;5055665;28;20023;-81
2023/03/10 11:17:55;;;;;;;2.25;1.60;;;15.50;55.20;;;;;;5055557;28;20021;-80
2023/03/10 11:20:47;;;;;;;6.47;1.67;;;15.60;56.20;;;;;;5056065;28;20482;-80
2023/03/10 11:23:33;;;;;;;5.15;2.40;;;15.70;55.60;;;;;;5055167;28;20108;-81
2023/03/10 11:26:09;;;;;;;2.05;1.52;;;15.70;55.20;;;;;;5054751;28;20394;-81
2023/03/10 11:28:51;;;;;;;2.85;1.65;;;15.80;55.10;;;;;;5064340;28;20037;-81
2023/03/10 11:31:25;;;;;;;4.00;2.25;;;15.80;55.50;;;;;;5066105;28;20021;-80
2023/03/10 11:34:10;;;;;;;4.00;2.17;;;15.90;56.10;;;;;;5070918;28;20021;-81
2023/03/10 11:37:01;;;;;;;4.47;1.50;;;15.80;55.10;;;;;;5074555;28;20017;-81
2023/03/10 11:39:48;;;;;;;5.65;1.73;;;15.80;55.40;;;;;;5074198;28;20028;-81
2023/03/10 11:42:47;;;;;;;5.30;2.40;;;15.90;56.00;;;;;;5071521;28;20089;-81
2023/03/10 11:45:31;;;;;;;3.65;2.08;;;16.10;56.20;;;;;;5051215;28;20041;-82
2023/03/10 11:48:34;;;;;;;2.90;2.00;;;16.20;56.00;;;;;;5054351;28;20443;-82
2023/03/10 11:51:02;;;;;;;3.45;2.00;;;16.20;55.40;;;;;;5063316;28;20020;-81
2023/03/10 11:53:45;;;;;;;3.55;2.03;;;16.30;56.90;;;;;;5069092;28;20043;-81
2023/03/10 11:56:13;;;;;;;3.53;2.05;;;16.30;55.50;;;;;;5074676;28;20028;-81
2023/03/10 11:58:51;;;;;;;4.63;2.47;;;16.40;57.10;;;;;;5074071;28;20498;-81
2023/03/10 12:01:27;;;;;;;2.58;1.85;;;16.40;56.40;;;;;;5071548;28;20027;-81
2023/03/10 12:04:15;;;;;;;3.50;2.83;;;16.40;55.80;;;;;;5052652;28;20086;-82
2023/03/10 12:06:52;;;;;;;3.78;2.47;;;16.30;54.60;;;;;;5066094;28;20500;-83
2023/03/10 12:09:36;;;;;;;4.93;2.38;;;16.20;56.20;;;;;;5059139;28;20448;-82
2023/03/10 12:12:04;;;;;;;4.45;2.42;;;16.10;56.50;;;;;;5060839;28;20025;-82
2023/03/10 12:14:30;;;;;;;5.85;2.30;;;15.90;58.60;;;;;;5069655;28;20428;-82
2023/03/10 12:16:57;;;;;;;7.43;4.25;;;15.80;57.60;;;;;;5062022;28;20031;-82
2023/03/10 12:19:23;;;;;;;6.78;3.92;;;15.50;59.10;;;;;;5074058;28;20021;-82
2023/03/10 12:22:21;;;;;;;7.22;4.88;;;15.20;61.80;;;;;;5074210;28;20032;-82
2023/03/10 12:24:47;;;;;;;10.23;4.53;;;14.80;64.10;;;;;;5073417;28;20024;-82
2023/03/10 12:27:13;;;;;;;7.70;4.72;;;14.30;66.30;;;;;;5074365;28;20037;-82
2023/03/10 12:29:43;;;;;;;11.85;5.22;;;14.00;69.40;;;;;;5072897;28;20032;-81
2023/03/10 12:32:40;;;;;;;9.45;4.93;;;13.80;72.30;;;;;;5073301;28;20474;-82
2023/03/10 12:35:49;;;;;;;7.35;4.78;;;13.50;75.40;;;;;;5073911;28;20517;-82
2023/03/10 12:38:29;;;;;;;10.85;5.28;;;13.30;81.00;;;;;;5074297;28;20025;-82
2023/03/10 12:40:55;;;;;;;8.68;6.07;;;13.00;86.30;;;;;;5073907;28;20066;-82
2023/03/10 12:43:42;;;;;;;10.57;6.30;;;12.90;92.70;;;;;;5073360;28;20028;-82
2023/03/10 12:46:11;;;;;;;13.65;7.28;;;12.70;95.20;;;;;;5073160;28;20040;-82
2023/03/10 12:48:48;;;;;;;10.98;7.22;;;12.50;98.20;;;;;;5073883;28;20063;-82
2023/03/10 12:51:21;;;;;;;12.15;7.50;;;12.40;99.90;;;;;;5074047;28;20017;-82
2023/03/10 12:54:01;;;;;;;15.10;11.32;;;12.20;99.90;;;;;;5074459;28;20385;-82